createdAt,value
2023-01-05T00:01:39.267Z,76777.44
2023-01-05T00:04:06.559Z,76785.38
2023-01-05T00:06:34.787Z,76771.47
2023-01-05T00:09:01.619Z,76795.31
2023-01-05T00:11:47.362Z,76779.41
2023-01-05T00:14:35.083Z,76799.28
2023-01-05T00:17:20.570Z,76795.31
2023-01-05T00:20:05.508Z,76801.28
2023-01-05T00:22:34.937Z,76795.31
2023-01-05T00:25:11.799Z,76803.25
2023-01-05T00:27:41.666Z,76811.22
2023-01-05T00:30:09.671Z,76799.28
2023-01-05T00:32:36.079Z,76825.13
2023-01-05T00:35:02.601Z,76817.19
2023-01-05T00:37:32.582Z,76817.19
2023-01-05T00:39:59.553Z,76829.09
2023-01-05T00:42:26.000Z,76841.03
2023-01-05T00:44:52.566Z,76837.06
2023-01-05T00:47:18.979Z,76825.13
2023-01-05T00:49:45.435Z,76821.16
2023-01-05T00:52:11.886Z,76825.13
2023-01-05T00:54:38.442Z,76815.19
2023-01-05T00:57:07.227Z,76803.25
2023-01-05T00:59:33.799Z,76813.19
2023-01-05T01:02:00.537Z,76805.25
2023-01-05T01:04:27.178Z,76801.28
2023-01-05T01:06:54.753Z,76791.34
2023-01-05T01:09:21.608Z,76787.38
2023-01-05T01:11:48.201Z,76785.38
2023-01-05T01:14:15.095Z,76777.44
2023-01-05T01:16:42.626Z,76789.34
2023-01-05T01:19:20.684Z,76787.38
2023-01-05T01:21:47.859Z,76765.50
2023-01-05T01:24:18.638Z,76785.38
2023-01-05T01:26:45.092Z,76785.38
2023-01-05T01:29:11.831Z,76793.34
2023-01-05T01:31:38.688Z,76793.34
2023-01-05T01:34:05.340Z,76799.28
2023-01-05T01:36:32.072Z,76787.38
2023-01-05T01:38:58.459Z,76787.38
2023-01-05T01:41:24.877Z,76787.38
2023-01-05T01:43:54.163Z,76787.38
2023-01-05T01:46:22.306Z,76777.44
2023-01-05T01:48:53.088Z,76777.44
2023-01-05T01:51:31.701Z,76779.41
2023-01-05T01:54:01.409Z,76769.47
2023-01-05T01:56:33.623Z,76771.47
2023-01-05T01:59:00.229Z,76779.41
2023-01-05T02:01:26.776Z,76771.47
2023-01-05T02:03:53.946Z,76765.50
2023-01-05T02:06:20.434Z,76753.59
2023-01-05T02:08:47.485Z,76761.53
2023-01-05T02:11:32.668Z,76769.47
2023-01-05T02:14:05.341Z,76771.47
2023-01-05T02:16:51.792Z,76753.59
2023-01-05T02:19:24.363Z,76745.63
2023-01-05T02:21:59.304Z,76743.66
2023-01-05T02:25:01.036Z,76745.63
2023-01-05T02:27:37.607Z,76745.63
2023-01-05T02:30:25.746Z,76735.69
2023-01-05T02:33:17.711Z,76737.69
2023-01-05T02:35:57.575Z,76743.66
2023-01-05T02:38:42.447Z,76745.63
2023-01-05T02:41:16.597Z,76735.69
2023-01-05T02:43:45.197Z,76757.56
2023-01-05T02:46:11.889Z,76749.59
2023-01-05T02:48:40.193Z,76745.63
2023-01-05T02:51:13.828Z,76735.69
2023-01-05T02:53:47.383Z,76741.66
2023-01-05T02:56:20.951Z,76749.59
2023-01-05T02:58:56.449Z,76753.59
2023-01-05T03:01:31.543Z,76753.59
2023-01-05T03:04:01.734Z,76761.53
2023-01-05T03:06:58.683Z,76765.50
2023-01-05T03:09:29.309Z,76775.44
2023-01-05T03:12:28.147Z,76773.47
2023-01-05T03:15:00.090Z,76789.34
2023-01-05T03:17:32.289Z,76801.28
2023-01-05T03:19:59.706Z,76787.38
2023-01-05T03:22:47.230Z,76791.34
2023-01-05T03:25:35.564Z,76787.38
2023-01-05T03:28:23.441Z,76793.34
2023-01-05T03:31:25.569Z,76793.34
2023-01-05T03:34:21.099Z,76779.41
2023-01-05T03:36:56.007Z,76771.47
2023-01-05T03:39:26.518Z,76787.38
2023-01-05T03:41:54.499Z,76759.53
2023-01-05T03:44:21.120Z,76763.53
2023-01-05T03:46:47.606Z,76759.53
2023-01-05T03:49:14.110Z,76755.56
2023-01-05T03:51:42.205Z,76755.56
2023-01-05T03:54:09.145Z,76745.63
2023-01-05T03:56:35.611Z,76765.50
2023-01-05T03:59:02.024Z,76747.63
2023-01-05T04:01:28.483Z,76751.59
2023-01-05T04:03:54.956Z,76763.53
2023-01-05T04:06:21.367Z,76759.53
2023-01-05T04:08:47.889Z,76761.53
2023-01-05T04:11:17.962Z,76757.56
2023-01-05T04:13:44.492Z,76751.59
2023-01-05T04:16:11.312Z,76757.56
2023-01-05T04:18:38.110Z,76761.53
2023-01-05T04:21:05.683Z,76753.59
2023-01-05T04:23:32.606Z,76761.53
2023-01-05T04:25:59.382Z,76747.63
2023-01-05T04:28:25.799Z,76759.53
2023-01-05T04:30:54.703Z,76759.53
2023-01-05T04:33:22.127Z,76765.50
2023-01-05T04:35:48.990Z,76757.56
2023-01-05T04:38:16.107Z,76767.50
2023-01-05T04:40:42.488Z,76767.50
2023-01-05T04:43:08.878Z,76765.50
2023-01-05T04:45:35.309Z,76763.53
2023-01-05T04:48:01.735Z,76771.47
2023-01-05T04:50:29.531Z,76763.53
2023-01-05T04:52:55.897Z,76755.56
2023-01-05T04:55:22.333Z,76775.44
2023-01-05T04:57:48.789Z,76789.34
2023-01-05T05:00:16.472Z,76809.22
2023-01-05T05:02:43.027Z,76813.19
2023-01-05T05:05:09.956Z,76839.03
2023-01-05T05:07:36.387Z,76845.00
2023-01-05T05:10:02.906Z,76854.94
2023-01-05T05:12:29.288Z,76852.94
2023-01-05T05:14:55.681Z,76862.88
2023-01-05T05:17:22.062Z,76854.94
2023-01-05T05:19:48.566Z,76860.91
2023-01-05T05:22:14.925Z,76862.88
2023-01-05T05:24:41.401Z,76856.94
2023-01-05T05:27:07.863Z,76864.88
2023-01-05T05:29:34.250Z,76868.84
2023-01-05T05:32:00.643Z,76876.78
2023-01-05T05:34:27.075Z,76870.84
2023-01-05T05:36:53.468Z,76850.97
2023-01-05T05:39:20.569Z,76860.91
2023-01-05T05:41:47.016Z,76860.91
2023-01-05T05:44:13.476Z,76856.94
2023-01-05T05:46:39.936Z,76862.88
2023-01-05T05:49:07.131Z,76854.94
2023-01-05T05:51:33.642Z,76847.00
2023-01-05T05:54:00.255Z,76848.97
2023-01-05T05:56:26.641Z,76833.06
2023-01-05T05:58:59.048Z,76841.03
2023-01-05T06:01:27.746Z,76852.94
2023-01-05T06:03:54.416Z,76843.00
2023-01-05T06:06:20.907Z,76833.06
2023-01-05T06:08:47.409Z,76845.00
2023-01-05T06:11:14.061Z,76845.00
2023-01-05T06:13:41.067Z,76831.09
2023-01-05T06:16:07.691Z,76831.09
2023-01-05T06:18:34.215Z,76833.06
2023-01-05T06:21:01.988Z,76843.00
2023-01-05T06:23:28.589Z,76847.00
2023-01-05T06:25:55.020Z,76835.06
2023-01-05T06:28:21.436Z,76813.19
2023-01-05T06:30:48.425Z,76807.25
2023-01-05T06:33:14.843Z,76809.22
2023-01-05T06:35:41.288Z,76821.16
2023-01-05T06:38:07.749Z,76827.13
2023-01-05T06:40:34.255Z,76835.06
2023-01-05T06:43:00.667Z,76854.94
2023-01-05T06:45:27.226Z,76870.84
2023-01-05T06:47:53.695Z,76898.66
2023-01-05T06:50:20.056Z,76902.63
2023-01-05T06:52:46.469Z,76910.59
2023-01-05T06:55:13.124Z,76918.53
2023-01-05T06:57:39.602Z,76912.56
2023-01-05T07:00:10.651Z,76912.56
2023-01-05T07:02:37.791Z,76914.56
2023-01-05T07:05:04.409Z,76906.59
2023-01-05T07:07:30.831Z,76942.38
2023-01-05T07:09:57.417Z,76928.47
2023-01-05T07:12:23.917Z,76938.41
2023-01-05T07:14:55.742Z,76950.31
2023-01-05T07:17:23.924Z,76928.47
2023-01-05T07:19:50.308Z,76952.31
2023-01-05T07:22:16.936Z,76940.41
2023-01-05T07:24:43.428Z,76946.34
2023-01-05T07:27:10.199Z,76948.34
2023-01-05T07:29:37.022Z,76952.31
2023-01-05T07:32:03.845Z,76978.16
2023-01-05T07:34:30.253Z,76950.31
2023-01-05T07:36:56.715Z,76966.22
2023-01-05T07:39:23.178Z,76970.19
2023-01-05T07:41:49.693Z,76986.09
2023-01-05T07:44:16.330Z,76984.13
2023-01-05T07:46:42.733Z,77000.00
2023-01-05T07:49:09.127Z,77007.97
2023-01-05T07:51:35.770Z,77007.97
2023-01-05T07:54:02.179Z,77013.94
2023-01-05T07:56:28.595Z,77009.94
2023-01-05T07:58:55.084Z,77023.88
2023-01-05T08:01:21.759Z,77037.78
2023-01-05T08:03:48.420Z,77033.81
2023-01-05T08:06:18.415Z,77029.81
2023-01-05T08:08:45.306Z,77021.88
2023-01-05T08:11:15.420Z,77039.75
2023-01-05T08:14:02.646Z,77045.72
2023-01-05T08:16:32.946Z,77043.75
2023-01-05T08:19:00.135Z,77053.69
2023-01-05T08:21:26.859Z,77057.66
2023-01-05T08:23:53.855Z,77059.63
2023-01-05T08:26:23.056Z,77057.66
2023-01-05T08:28:50.839Z,77043.75
2023-01-05T08:31:24.909Z,77039.75
2023-01-05T08:33:51.850Z,77045.72
2023-01-05T08:36:19.985Z,77023.88
2023-01-05T08:38:50.316Z,77043.75
2023-01-05T08:41:19.097Z,77057.66
2023-01-05T08:43:53.145Z,77055.66
2023-01-05T08:46:21.615Z,77049.69
2023-01-05T08:48:49.686Z,77055.66
2023-01-05T08:51:16.191Z,77047.72
2023-01-05T08:53:42.756Z,77071.56
2023-01-05T08:56:12.683Z,77057.66
2023-01-05T08:58:40.343Z,77057.66
2023-01-05T09:01:12.494Z,77057.66
2023-01-05T09:03:39.641Z,77061.63
2023-01-05T09:06:09.686Z,77061.63
2023-01-05T09:08:36.249Z,77053.69
2023-01-05T09:11:23.349Z,77063.63
2023-01-05T09:13:52.547Z,77073.56
2023-01-05T09:16:42.984Z,77077.53
2023-01-05T09:19:09.489Z,77081.50
2023-01-05T09:21:35.992Z,77083.50
2023-01-05T09:24:02.456Z,77071.56
2023-01-05T09:26:28.832Z,77061.63
2023-01-05T09:28:55.291Z,77051.69
2023-01-05T09:31:22.952Z,77073.56
2023-01-05T09:33:49.706Z,77131.19
2023-01-05T09:36:18.058Z,77139.13
2023-01-05T09:38:50.299Z,77137.16
2023-01-05T09:41:22.938Z,77127.22
2023-01-05T09:43:53.330Z,77139.13
2023-01-05T09:46:23.424Z,77131.19
2023-01-05T09:48:53.506Z,77139.13
2023-01-05T09:51:19.981Z,77137.16
2023-01-05T09:53:46.698Z,77143.13
2023-01-05T09:56:59.033Z,77198.75
2023-01-05T09:59:26.473Z,77166.97
2023-01-05T10:01:55.871Z,77159.00
2023-01-05T10:04:30.384Z,77141.13
2023-01-05T10:07:05.428Z,77135.16
2023-01-05T10:09:39.292Z,77109.31
2023-01-05T10:12:27.495Z,77089.44
2023-01-05T10:15:14.973Z,77095.41
2023-01-05T10:17:43.679Z,77087.47
2023-01-05T10:20:16.569Z,77077.53
2023-01-05T10:22:57.579Z,77069.56
2023-01-05T10:25:34.903Z,77071.56
2023-01-05T10:28:39.183Z,77083.50
2023-01-05T10:31:22.740Z,77081.50
2023-01-05T10:33:56.740Z,77071.56
2023-01-05T10:37:06.875Z,77067.59
2023-01-05T10:40:02.802Z,77063.63
2023-01-05T10:42:57.176Z,77071.56
2023-01-05T10:45:27.227Z,77079.50
2023-01-05T10:47:53.859Z,77123.25
2023-01-05T10:50:33.263Z,77139.13
2023-01-05T10:53:05.540Z,77125.22
2023-01-05T10:55:32.334Z,77111.31
2023-01-05T10:57:58.776Z,77119.25
2023-01-05T11:00:40.817Z,77119.25
2023-01-05T11:03:14.626Z,77137.16
2023-01-05T11:05:47.447Z,77147.09
2023-01-05T11:08:17.553Z,77129.19
2023-01-05T11:10:53.390Z,77137.16
2023-01-05T11:13:30.647Z,77115.28
2023-01-05T11:16:02.113Z,77129.19
2023-01-05T11:18:31.539Z,77135.16
2023-01-05T11:21:13.550Z,77135.16
2023-01-05T11:23:54.648Z,77147.09
2023-01-05T11:26:30.829Z,77153.06
2023-01-05T11:29:09.752Z,77145.09
2023-01-05T11:31:42.883Z,77135.16
2023-01-05T11:34:37.657Z,77129.19
2023-01-05T11:37:10.048Z,77137.16
2023-01-05T11:39:50.980Z,77143.13
2023-01-05T11:42:26.070Z,77139.13
2023-01-05T11:44:55.785Z,77141.13
2023-01-05T11:47:25.943Z,77149.06
2023-01-05T11:50:24.901Z,77137.16
2023-01-05T11:52:57.097Z,77168.94
2023-01-05T11:55:34.039Z,77147.09
2023-01-05T11:58:23.650Z,77133.19
2023-01-05T12:01:11.968Z,77143.13
2023-01-05T12:03:38.916Z,77155.03
2023-01-05T12:06:34.613Z,77170.94
2023-01-05T12:09:40.306Z,77174.91
2023-01-05T12:12:35.661Z,77166.97
2023-01-05T12:15:27.257Z,77170.94
2023-01-05T12:18:24.519Z,77166.97
2023-01-05T12:21:26.059Z,77196.78
2023-01-05T12:24:07.543Z,77182.88
2023-01-05T12:26:45.445Z,77188.81
2023-01-05T12:36:06.996Z,77186.84
2023-01-05T12:38:52.039Z,77198.75
2023-01-05T12:41:27.698Z,77226.59
2023-01-05T12:44:38.891Z,77222.63
2023-01-05T12:47:14.572Z,77230.56
2023-01-05T12:49:50.711Z,77230.56
2023-01-05T12:52:41.921Z,77250.44
2023-01-05T12:55:16.948Z,77242.50
2023-01-05T12:57:48.775Z,77262.38
2023-01-05T13:00:18.917Z,77258.38
2023-01-05T13:03:00.307Z,77258.38
2023-01-05T13:05:41.699Z,77286.22
2023-01-05T13:08:20.625Z,77274.28
2023-01-05T13:11:00.073Z,77282.25
2023-01-05T13:13:36.148Z,77290.19
2023-01-05T13:16:08.619Z,77302.13
2023-01-05T13:18:42.118Z,77270.31
2023-01-05T13:21:14.798Z,77302.13
2023-01-05T13:23:47.215Z,77306.09
2023-01-05T13:26:18.768Z,77290.19
2023-01-05T13:28:55.535Z,77302.13
2023-01-05T13:31:25.060Z,77308.09
2023-01-05T13:34:28.490Z,77298.13
2023-01-05T13:37:10.292Z,77300.13
2023-01-05T13:39:52.002Z,77323.97
2023-01-05T13:42:46.294Z,77329.94
2023-01-05T13:45:33.004Z,77333.91
2023-01-05T13:49:03.368Z,77318.03
2023-01-05T13:52:05.450Z,77331.94
2023-01-05T13:55:00.054Z,77341.88
2023-01-05T13:57:35.093Z,77353.78
2023-01-05T14:00:10.945Z,77357.78
2023-01-05T14:02:42.551Z,77359.75
2023-01-05T14:05:24.481Z,77353.78
2023-01-05T14:07:54.161Z,77367.72
2023-01-05T14:10:38.418Z,77373.66
2023-01-05T14:13:06.968Z,77385.59
2023-01-05T14:15:36.516Z,77391.56
2023-01-05T14:18:52.226Z,77395.53
2023-01-05T14:21:51.166Z,77401.50
2023-01-05T14:24:32.268Z,77405.47
2023-01-05T14:27:09.037Z,77443.25
2023-01-05T14:29:44.647Z,77467.09
2023-01-05T14:32:14.031Z,77483.00
2023-01-05T14:34:49.881Z,77488.97
2023-01-05T14:37:23.665Z,77488.97
2023-01-05T14:40:00.412Z,77477.03
2023-01-05T14:42:40.761Z,77492.94
2023-01-05T14:45:22.214Z,77492.94
2023-01-05T14:47:51.542Z,77496.91
2023-01-05T14:50:38.467Z,77504.84
2023-01-05T14:53:10.844Z,77518.78
2023-01-05T14:56:01.610Z,77524.72
2023-01-05T14:58:37.098Z,77520.75
2023-01-05T15:01:15.620Z,77520.75
2023-01-05T15:04:03.531Z,77530.69
2023-01-05T15:06:41.292Z,77534.69
2023-01-05T15:09:48.129Z,77534.69
2023-01-05T15:12:32.518Z,77568.47
2023-01-05T15:15:31.468Z,77568.47
2023-01-05T15:18:25.657Z,77578.41
2023-01-05T15:21:15.165Z,77566.47
2023-01-05T15:24:10.086Z,77586.34
2023-01-05T15:26:54.653Z,77588.34
2023-01-05T15:29:59.087Z,77596.28
2023-01-05T15:32:34.332Z,77598.28
2023-01-05T15:35:09.268Z,77616.16
2023-01-05T15:37:37.984Z,77624.13
2023-01-05T15:40:09.118Z,77646.00
2023-01-05T15:42:38.436Z,77657.91
2023-01-05T15:45:09.149Z,77659.91
2023-01-05T15:47:39.840Z,77671.81
2023-01-05T15:50:15.965Z,77659.91
2023-01-05T15:52:53.240Z,77683.75
2023-01-05T15:55:19.675Z,77693.69
2023-01-05T15:58:04.570Z,77683.75
2023-01-05T16:00:33.494Z,77699.66
2023-01-05T16:03:00.030Z,77711.59
2023-01-05T16:05:30.358Z,77723.50
2023-01-05T16:08:08.275Z,77735.44
2023-01-05T16:10:46.823Z,77745.38
2023-01-05T16:13:19.187Z,77757.31
2023-01-05T16:15:50.359Z,77751.34
2023-01-05T16:18:23.161Z,77755.31
2023-01-05T16:20:52.291Z,77765.25
2023-01-05T16:23:40.353Z,77761.28
2023-01-05T16:26:12.879Z,77781.16
2023-01-05T16:28:40.382Z,77799.06
2023-01-05T16:31:14.219Z,77807.00
2023-01-05T16:33:40.689Z,77814.97
2023-01-05T16:36:33.446Z,77810.97
2023-01-05T16:39:13.660Z,77824.91
2023-01-05T16:42:00.515Z,77828.88
2023-01-05T16:44:30.873Z,77838.81
2023-01-05T16:47:07.353Z,77848.75
2023-01-05T16:49:41.241Z,77836.81
2023-01-05T16:52:24.296Z,77842.78
2023-01-05T16:55:27.631Z,77850.75
2023-01-05T16:57:55.483Z,77834.84
2023-01-05T17:00:32.584Z,77856.69
2023-01-05T17:03:03.420Z,77868.63
2023-01-05T17:05:32.573Z,77856.69
2023-01-05T17:08:19.777Z,77854.72
2023-01-05T17:10:47.059Z,77846.75
2023-01-05T17:13:20.764Z,77852.72
2023-01-05T17:15:48.851Z,77858.69
2023-01-05T17:18:26.709Z,77872.59
2023-01-05T17:20:55.196Z,77886.53
2023-01-05T17:23:24.941Z,77872.59
2023-01-05T17:28:22.313Z,77902.44
2023-01-05T17:30:48.944Z,77910.38
2023-01-05T17:33:15.444Z,77920.31
2023-01-05T17:35:42.142Z,77926.28
2023-01-05T17:38:11.179Z,77922.31
2023-01-05T17:40:38.383Z,77932.25
2023-01-05T17:43:05.502Z,77946.16
2023-01-05T17:45:32.717Z,77966.03
2023-01-05T17:47:59.554Z,77966.03
2023-01-05T17:53:01.905Z,77977.97
2023-01-05T17:55:29.095Z,77997.84
2023-01-05T17:57:57.731Z,77993.88
2023-01-05T18:00:26.263Z,77997.84
2023-01-05T18:02:54.015Z,78001.81
2023-01-05T18:05:21.744Z,77989.91
2023-01-05T18:07:49.266Z,77985.91
2023-01-05T18:10:25.240Z,77989.91
2023-01-05T18:12:53.462Z,77979.97
2023-01-05T18:15:19.911Z,78001.81
2023-01-05T18:17:46.442Z,77989.91
2023-01-05T18:20:15.152Z,77993.88
2023-01-05T18:22:42.575Z,77999.84
2023-01-05T18:25:12.368Z,77997.84
2023-01-05T18:27:39.461Z,77972.00
2023-01-05T18:30:07.025Z,77997.84
2023-01-05T18:32:33.605Z,78003.81
2023-01-05T18:35:03.081Z,77993.88
2023-01-05T18:37:32.426Z,78011.75
2023-01-05T18:39:58.907Z,78005.81
2023-01-05T18:42:26.543Z,78021.69
2023-01-05T18:44:52.965Z,78005.81
2023-01-05T18:47:19.376Z,78009.78
2023-01-05T18:49:45.883Z,78009.78
2023-01-05T18:52:12.327Z,78013.75
2023-01-05T18:54:38.899Z,78009.78
2023-01-05T18:57:05.374Z,78017.72
2023-01-05T18:59:32.072Z,78025.69
2023-01-05T19:01:59.016Z,78005.81
2023-01-05T19:04:25.737Z,77997.84
2023-01-05T19:06:52.166Z,77993.88
2023-01-05T19:09:18.651Z,77989.91
2023-01-05T19:11:47.655Z,78003.81
2023-01-05T19:14:15.754Z,78027.66
2023-01-05T19:16:42.391Z,78051.53
2023-01-05T19:19:12.254Z,78049.53
2023-01-05T19:21:41.868Z,78067.44
2023-01-05T19:24:14.752Z,78063.44
2023-01-05T19:26:41.325Z,78069.41
2023-01-05T19:29:07.809Z,78053.50
2023-01-05T19:31:34.649Z,78069.41
2023-01-05T19:34:01.235Z,78059.47
2023-01-05T19:36:35.654Z,78057.50
2023-01-05T19:39:10.841Z,78073.41
2023-01-05T19:41:38.650Z,78077.38
2023-01-05T19:44:05.088Z,78083.34
2023-01-05T19:46:32.165Z,78069.41
2023-01-05T19:49:00.451Z,78085.31
2023-01-05T19:51:29.283Z,78071.41
2023-01-05T19:53:58.193Z,78073.41
2023-01-05T19:56:27.030Z,78085.31
2023-01-05T19:58:56.188Z,78083.34
2023-01-05T20:01:24.304Z,78091.28
2023-01-05T20:03:51.530Z,78099.25
2023-01-05T20:06:29.560Z,78105.19
2023-01-05T20:08:59.742Z,78107.19
2023-01-05T20:11:40.884Z,78127.06
2023-01-05T20:14:26.890Z,78135.03
2023-01-05T20:16:59.891Z,78148.94
2023-01-05T20:19:28.567Z,78152.91
2023-01-05T20:21:56.958Z,78182.75
2023-01-05T20:24:26.112Z,78180.75
2023-01-05T20:26:56.280Z,78190.69
2023-01-05T20:29:24.125Z,78204.59
2023-01-05T20:31:57.002Z,78210.56
2023-01-05T20:34:28.050Z,78198.66
2023-01-05T20:36:54.736Z,78202.63
2023-01-05T20:39:22.832Z,78242.38
2023-01-05T20:41:52.326Z,78230.44
2023-01-05T20:44:23.148Z,78232.44
2023-01-05T20:46:51.156Z,78224.50
2023-01-05T20:49:18.213Z,78228.47
2023-01-05T20:51:44.693Z,78228.47
2023-01-05T20:54:11.872Z,78224.50
2023-01-05T20:56:41.766Z,78234.44
2023-01-05T20:59:12.969Z,78240.41
2023-01-05T21:01:39.947Z,78248.34
2023-01-05T21:04:07.323Z,78234.44
2023-01-05T21:06:34.500Z,78250.34
2023-01-05T21:09:01.570Z,78258.28
2023-01-05T21:11:29.319Z,78262.25
2023-01-05T21:13:57.069Z,78246.34
2023-01-05T21:16:32.196Z,78240.41
2023-01-05T21:19:01.239Z,78232.44
2023-01-05T21:21:29.398Z,78216.53
2023-01-05T21:23:56.035Z,78230.44
2023-01-05T21:26:23.440Z,78232.44
2023-01-05T21:28:51.842Z,78254.31
2023-01-05T21:31:24.476Z,78260.28
2023-01-05T21:33:51.508Z,78266.25
2023-01-05T21:36:26.669Z,78270.22
2023-01-05T21:39:01.682Z,78260.28
2023-01-05T21:41:50.540Z,78258.28
2023-01-05T21:44:18.273Z,78268.22
2023-01-05T21:46:44.802Z,78266.25
2023-01-05T21:49:12.314Z,78262.25
2023-01-05T21:51:57.890Z,78250.34
2023-01-05T21:54:43.802Z,78254.31
2023-01-05T21:57:10.447Z,78288.09
2023-01-05T21:59:36.965Z,78300.03
2023-01-05T22:02:03.535Z,78327.88
2023-01-05T22:04:30.046Z,78347.75
2023-01-05T22:06:57.144Z,78359.69
2023-01-05T22:09:23.608Z,78377.56
2023-01-05T22:11:50.103Z,78405.41
2023-01-05T22:14:16.700Z,78381.56
2023-01-05T22:16:43.382Z,78401.44
2023-01-05T22:19:10.971Z,78387.53
2023-01-05T22:21:37.733Z,78407.41
2023-01-05T22:24:04.636Z,78419.31
2023-01-05T22:26:31.078Z,78421.31
2023-01-05T22:28:57.642Z,78397.47
2023-01-05T22:31:28.154Z,78393.47
2023-01-05T22:33:57.447Z,78405.41
2023-01-05T22:36:24.883Z,78415.34
2023-01-05T22:38:52.975Z,78401.44
2023-01-05T22:41:27.036Z,78425.28
2023-01-05T22:43:53.799Z,78411.38
2023-01-05T22:46:22.910Z,78421.31
2023-01-05T22:48:51.322Z,78441.19
2023-01-05T22:51:38.215Z,78439.22
2023-01-05T22:54:05.140Z,78486.94
2023-01-05T22:56:33.367Z,78524.72
2023-01-05T22:59:00.888Z,78518.75
2023-01-05T23:01:38.911Z,78542.59
2023-01-05T23:04:06.572Z,78576.41
2023-01-05T23:06:33.106Z,78594.31
2023-01-05T23:09:00.312Z,78582.38
2023-01-05T23:11:34.960Z,78612.19
2023-01-05T23:14:03.995Z,78578.41
2023-01-05T23:16:30.805Z,78600.25
2023-01-05T23:18:57.537Z,78606.22
2023-01-05T23:21:25.302Z,78606.22
2023-01-05T23:23:53.534Z,78570.44
2023-01-05T23:26:20.656Z,78558.50
2023-01-05T23:28:47.819Z,78592.31
2023-01-05T23:31:16.197Z,78596.28
2023-01-05T23:33:43.725Z,78596.28
2023-01-05T23:36:11.661Z,78624.13
2023-01-05T23:38:38.575Z,78661.91
2023-01-05T23:41:06.905Z,78699.69
2023-01-05T23:43:35.585Z,78673.84
2023-01-05T23:46:04.818Z,78685.75
2023-01-05T23:48:31.502Z,78671.84
2023-01-05T23:50:58.148Z,78685.75
2023-01-05T23:53:25.458Z,78677.81
2023-01-05T23:55:52.363Z,78667.88
2023-01-05T23:58:18.816Z,78697.69
